Flight Track Log - Related Links

Times and Time Zones

All times are in EDT time to prevent confusion due to time zone crossing. See the N373SR flight status page for this flight to view local times or setup timezone preferences in your user account.

Time Position Orientation Groundspeed Altitude Reporting Facility
EDT Latitude Longitude Course Direction KTS MPH feet Rate Location/Type
Tue 09:58:42 PM 41.4647 -71.4928 256° West 142 163 4,400  Level Boston Center
Tue 09:59:36 PM 41.4569 -71.5456 259° West 159 183 4,500 52 Climbing Boston Center
Tue 10:00:37 PM 41.4450 -71.6067 255° West 165 190 4,500  Level Boston Center
Tue 10:01:38 PM 41.4350 -71.6675 258° West 171 197 4,500  Level Boston Center
Tue 10:02:38 PM 41.4250 -71.7286 258° West 168 193 4,500  Level Boston Center
Tue 10:03:00 PM 41.4757 -71.5941 256° West  Level Estimated
Tue 10:03:39 PM 41.4150 -71.7925 258° West 167 192 4,500  Level Boston Center
Tue 10:04:40 PM 41.4047 -71.8533 257° West 168 193 4,500  Level Boston Center
Tue 10:05:40 PM 41.3947 -71.9144 258° West 170 196 4,500  Level Boston Center
Tue 10:06:35 PM 41.3825 -71.9697 254° West 169 194 4,500  Level Boston Center
Tue 10:07:35 PM 41.3722 -72.0333 258° West 171 197 4,500 38 Level Boston Center
Tue 10:09:15 PM 41.3500 -72.1333 254° West 170 196 4,600 36 Climbing New York TRACON
Tue 10:10:21 PM 41.3500 -72.2000 270° West 171 197 4,600  Level New York TRACON
Tue 10:11:21 PM 41.3333 -72.2667 252° West 172 198 4,600  Level New York TRACON
Tue 10:12:15 PM 41.3167 -72.3167 246° West 174 200 4,600  Level New York TRACON
Tue 10:13:21 PM 41.3167 -72.3833 270° West 171 197 4,600 -48 Level New York TRACON
Tue 10:14:21 PM 41.3000 -72.4500 252° West 170 196 4,500  Descending New York TRACON
Tue 10:15:15 PM 41.2833 -72.5000 246° West 165 190 4,600 50 Climbing New York TRACON
Tue 10:16:21 PM 41.2833 -72.5500 270° West 161 185 4,600  Level New York TRACON
Tue 10:17:21 PM 41.2667 -72.6167 252° West 159 183 4,600  Level New York TRACON
Tue 10:18:21 PM 41.2500 -72.6667 246° West 157 181 4,600  Level New York TRACON
Tue 10:19:27 PM 41.2500 -72.7333 270° West 159 183 4,600  Level New York TRACON
Tue 10:20:21 PM 41.2333 -72.7833 246° West 157 181 4,600  Level New York TRACON
Tue 10:21:21 PM 41.2333 -72.8333 270° West 156 180 4,600  Level New York TRACON
Tue 10:22:21 PM 41.2167 -72.9000 252° West 158 182 4,600  Level New York TRACON
Tue 10:23:15 PM 41.2000 -72.9500 246° West 159 183 4,600  Level New York TRACON
Tue 10:24:21 PM 41.2000 -73.0167 270° West 160 184 4,600  Level New York TRACON
Tue 10:25:21 PM 41.1833 -73.0667 246° West 161 185 4,600  Level New York TRACON
Tue 10:26:21 PM 41.1667 -73.1333 252° West 162 186 4,600  Level New York TRACON
Tue 10:27:21 PM 41.1667 -73.1833 270° West 160 184 4,600  Level New York TRACON
Tue 10:28:21 PM 41.1500 -73.2500 252° West 164 189 4,600  Level New York TRACON
Tue 10:29:27 PM 41.1333 -73.3000 246° West 166 191 4,600  Level New York TRACON
Tue 10:30:33 PM 41.1000 -73.3667 236° Southwest 170 196 4,600  Level New York TRACON
Tue 10:31:39 PM 41.0833 -73.4167 246° West 172 198 4,600  Level New York TRACON
Tue 10:32:27 PM 41.0500 -73.4667 229° Southwest 172 198 4,600 -444 Level New York TRACON
Tue 10:33:27 PM 41.0333 -73.5167 246° West 173 199 3,800 -750 Descending New York TRACON
Tue 10:34:27 PM 41.0000 -73.5667 229° Southwest 178 205 3,100 -600 Descending New York TRACON
Tue 10:35:27 PM 40.9667 -73.6000 217° Southwest 154 177 2,600 -526 Descending New York TRACON
Tue 10:36:21 PM 40.9833 -73.6333 304° West 100 115 2,100 -421 Descending New York TRACON
Tue 10:37:21 PM 41.0000 -73.6500 323° Northwest 75 86 1,800 -331 Descending New York TRACON
Tue 10:38:28 PM 41.0167 -73.6667 323° Northwest 75 86 1,400 -381 Descending New York TRACON
Tue 10:39:27 PM 41.0333 -73.6833 323° Northwest 84 97 1,000 -425 Descending New York TRACON
Tue 10:40:21 PM 41.0500 -73.7000 323° Northwest 78 90 600 -444 Descending New York TRACON
Tue 10:42:00 PM 41.0667 -73.7000 270° West  Level FlightAware Approximate
Tue 10:49:00 PM 41.0669 -73.7076 270° West  Level Estimated
Tue 10:50:00 PM 41.0667 -73.7000 270° West  Level FlightAware Approximate

Login

Don't have an account? Register now (free) for customized features, flight alerts, and more!